createdAt,value
2022-11-25T00:00:26.536Z,55.89
2022-11-25T00:02:54.295Z,55.59
2022-11-25T00:05:28.730Z,56.39
2022-11-25T00:07:57.731Z,56.23
2022-11-25T00:10:25.545Z,55.87
2022-11-25T00:12:53.204Z,56.01
2022-11-25T00:15:20.952Z,56.14
2022-11-25T00:17:48.762Z,55.95
2022-11-25T00:20:16.668Z,56.02
2022-11-25T00:22:45.141Z,56.06
2022-11-25T00:25:14.376Z,56.49
2022-11-25T00:27:43.637Z,56.23
2022-11-25T00:30:12.376Z,56.26
2022-11-25T00:32:40.071Z,56.08
2022-11-25T00:35:08.402Z,56.09
2022-11-25T00:37:36.115Z,55.98
2022-11-25T00:40:04.006Z,56.51
2022-11-25T00:42:50.630Z,56.70
2022-11-25T00:45:18.241Z,56.55
2022-11-25T00:47:46.019Z,56.63
2022-11-25T00:50:13.671Z,56.42
2022-11-25T00:52:41.448Z,56.77
2022-11-25T00:55:09.909Z,57.33
2022-11-25T00:57:38.988Z,57.04
2022-11-25T01:00:07.918Z,57.29
2022-11-25T01:02:35.710Z,57.53
2022-11-25T01:05:04.055Z,56.84
2022-11-25T01:07:31.823Z,57.82
2022-11-25T01:09:59.458Z,57.31
2022-11-25T01:12:27.235Z,57.89
2022-11-25T01:14:56.237Z,58.47
2022-11-25T01:17:23.978Z,57.98
2022-11-25T01:19:51.750Z,58.29
2022-11-25T01:22:19.424Z,58.02
2022-11-25T01:24:47.221Z,58.26
2022-11-25T01:29:42.976Z,58.36
2022-11-25T01:32:12.019Z,57.97
2022-11-25T01:34:39.667Z,58.10
2022-11-25T01:37:07.471Z,58.76
2022-11-25T01:39:35.170Z,58.43
2022-11-25T01:42:03.166Z,58.33
2022-11-25T01:44:31.316Z,58.45
2022-11-25T01:47:01.871Z,58.33
2022-11-25T01:49:37.200Z,58.72
2022-11-25T01:52:09.783Z,58.89
2022-11-25T01:54:39.577Z,58.96
2022-11-25T01:57:12.122Z,58.93
2022-11-25T01:59:43.225Z,58.69
2022-11-25T02:02:10.913Z,58.51
2022-11-25T02:04:40.909Z,58.65
2022-11-25T02:07:10.994Z,58.90
2022-11-25T02:09:39.378Z,58.78
2022-11-25T02:12:07.411Z,58.85
2022-11-25T02:14:35.461Z,58.76
2022-11-25T02:17:03.268Z,58.56
2022-11-25T02:19:35.463Z,58.32
2022-11-25T02:22:04.679Z,58.31
2022-11-25T02:24:35.011Z,58.84
2022-11-25T02:27:04.390Z,58.23
2022-11-25T02:29:32.067Z,58.60
2022-11-25T02:31:59.745Z,58.34
2022-11-25T02:34:27.445Z,58.68
2022-11-25T02:36:55.206Z,58.10
2022-11-25T02:39:22.831Z,58.66
2022-11-25T02:41:52.219Z,58.61
2022-11-25T02:44:21.597Z,58.86
2022-11-25T02:46:49.656Z,58.57
2022-11-25T02:49:17.392Z,58.42
2022-11-25T02:51:45.939Z,58.51
2022-11-25T02:54:13.820Z,58.34
2022-11-25T02:56:41.586Z,58.61
2022-11-25T02:59:09.412Z,58.55
2022-11-25T03:01:38.977Z,58.72
2022-11-25T03:04:06.825Z,58.48
2022-11-25T03:06:34.645Z,58.42
2022-11-25T03:09:02.413Z,58.09
2022-11-25T03:11:44.031Z,58.23
2022-11-25T03:14:11.710Z,57.86
2022-11-25T03:16:40.890Z,58.09
2022-11-25T03:19:08.872Z,57.60
2022-11-25T03:21:36.638Z,57.80
2022-11-25T03:24:04.647Z,58.03
2022-11-25T03:26:32.447Z,57.50
2022-11-25T03:29:00.114Z,57.29
2022-11-25T03:31:27.862Z,57.62
2022-11-25T03:33:57.919Z,57.54
2022-11-25T03:36:25.642Z,57.28
2022-11-25T03:38:53.297Z,57.55
2022-11-25T03:41:20.983Z,57.52
2022-11-25T03:43:48.981Z,56.79
2022-11-25T03:46:16.885Z,56.70
2022-11-25T03:48:44.784Z,56.96
2022-11-25T03:51:13.955Z,57.45
2022-11-25T03:53:41.680Z,57.32
2022-11-25T03:56:09.618Z,57.62
2022-11-25T03:58:37.300Z,57.42
2022-11-25T04:01:05.326Z,57.28
2022-11-25T04:03:33.208Z,57.52
2022-11-25T04:06:00.926Z,57.56
2022-11-25T04:08:30.063Z,57.69
2022-11-25T04:10:57.725Z,58.19
2022-11-25T04:13:24.363Z,58.28
2022-11-25T04:15:52.099Z,58.41
2022-11-25T04:18:20.163Z,59.07
2022-11-25T04:20:48.004Z,58.80
2022-11-25T04:23:15.762Z,59.60
2022-11-25T04:25:44.957Z,59.13
2022-11-25T04:28:12.893Z,59.57
2022-11-25T04:30:40.809Z,59.86
2022-11-25T04:33:08.596Z,59.84
2022-11-25T04:35:36.412Z,60.16
2022-11-25T04:38:04.072Z,60.20
2022-11-25T04:40:31.826Z,60.55
2022-11-25T04:43:06.069Z,60.48
2022-11-25T04:45:58.524Z,61.13
2022-11-25T04:48:24.513Z,60.71
2022-11-25T04:50:52.158Z,60.91
2022-11-25T04:53:19.839Z,60.58
2022-11-25T04:55:48.108Z,61.00
2022-11-25T04:58:37.722Z,60.45
2022-11-25T05:01:04.562Z,60.64
2022-11-25T05:03:32.231Z,60.56
2022-11-25T05:05:59.887Z,60.75
2022-11-25T05:08:27.628Z,60.70
2022-11-25T05:10:55.262Z,60.52
2022-11-25T05:13:24.262Z,60.61
2022-11-25T05:15:51.907Z,60.66
2022-11-25T05:18:19.509Z,60.71
2022-11-25T05:20:47.313Z,60.30
2022-11-25T05:23:14.944Z,60.32
2022-11-25T05:25:42.708Z,60.59
2022-11-25T05:28:10.421Z,60.78
2022-11-25T05:30:39.554Z,60.60
2022-11-25T05:33:09.635Z,60.36
2022-11-25T05:35:39.713Z,60.34
2022-11-25T05:38:15.652Z,60.29
2022-11-25T05:40:46.208Z,60.42
2022-11-25T05:43:30.048Z,60.13
2022-11-25T05:46:01.774Z,60.30
2022-11-25T05:48:36.704Z,60.03
2022-11-25T05:51:08.645Z,60.45
2022-11-25T05:53:38.016Z,60.37
2022-11-25T05:56:17.155Z,60.51
2022-11-25T05:58:47.042Z,60.82
2022-11-25T06:01:16.762Z,60.62
2022-11-25T06:03:44.584Z,61.10
2022-11-25T06:06:12.473Z,61.56
2022-11-25T06:08:40.218Z,61.15
2022-11-25T06:11:08.424Z,60.99
2022-11-25T06:13:36.238Z,61.34
2022-11-25T06:16:08.587Z,61.04
2022-11-25T06:18:38.355Z,61.52
2022-11-25T06:21:06.737Z,61.42
2022-11-25T06:23:34.444Z,61.39
2022-11-25T06:26:06.667Z,61.70
2022-11-25T06:28:34.787Z,61.27
2022-11-25T06:31:07.603Z,61.61
2022-11-25T06:33:35.502Z,61.28
2022-11-25T06:36:05.553Z,61.31
2022-11-25T06:38:33.417Z,60.85
2022-11-25T06:41:01.802Z,60.74
2022-11-25T06:43:29.863Z,61.43
2022-11-25T06:46:03.055Z,61.38
2022-11-25T06:48:30.966Z,61.03
2022-11-25T06:50:59.360Z,61.73
2022-11-25T06:53:28.733Z,61.33
2022-11-25T06:56:07.085Z,61.82
2022-11-25T06:58:36.588Z,61.41
2022-11-25T07:01:05.218Z,61.76
2022-11-25T07:03:33.054Z,61.54
2022-11-25T07:06:00.912Z,61.47
2022-11-25T07:08:33.945Z,61.51
2022-11-25T07:11:06.022Z,61.98
2022-11-25T07:13:34.250Z,61.81
2022-11-25T07:16:03.375Z,61.87
2022-11-25T07:18:33.485Z,62.04
2022-11-25T07:21:08.228Z,61.73
2022-11-25T07:23:37.731Z,61.87
2022-11-25T07:26:06.246Z,61.64
2022-11-25T07:28:34.280Z,61.50
2022-11-25T07:31:23.716Z,61.26
2022-11-25T07:36:26.205Z,61.29
2022-11-25T07:38:55.441Z,61.35
2022-11-25T07:41:25.053Z,61.42
2022-11-25T07:43:53.836Z,61.10
2022-11-25T07:46:26.734Z,61.24
2022-11-25T07:48:55.063Z,61.06
2022-11-25T07:51:23.868Z,61.10
2022-11-25T07:53:51.981Z,60.99
2022-11-25T07:56:21.710Z,60.90
2022-11-25T07:58:49.619Z,61.08
2022-11-25T08:01:18.527Z,60.89
2022-11-25T08:03:47.115Z,60.54
2022-11-25T08:06:15.869Z,60.25
2022-11-25T08:08:44.088Z,60.55
2022-11-25T08:11:19.192Z,60.63
2022-11-25T08:13:48.245Z,60.83
2022-11-25T08:16:17.112Z,60.45
2022-11-25T08:18:44.858Z,60.48
2022-11-25T08:21:13.537Z,60.15
2022-11-25T08:23:43.363Z,60.27
2022-11-25T08:26:12.874Z,60.03
2022-11-25T08:28:41.233Z,59.57
2022-11-25T08:31:11.197Z,59.70
2022-11-25T08:33:39.436Z,59.46
2022-11-25T08:36:08.247Z,59.30
2022-11-25T08:38:36.052Z,58.89
2022-11-25T08:41:03.731Z,58.83
2022-11-25T08:43:31.532Z,59.10
2022-11-25T08:45:59.167Z,58.79
2022-11-25T08:48:28.348Z,58.59
2022-11-25T08:50:56.040Z,58.88
2022-11-25T08:53:23.776Z,58.29
2022-11-25T08:55:51.522Z,58.02
2022-11-25T08:58:19.505Z,57.73
2022-11-25T09:00:47.236Z,57.97
2022-11-25T09:03:15.219Z,58.35
2022-11-25T09:05:44.445Z,57.71
2022-11-25T09:08:12.358Z,57.55
2022-11-25T09:10:40.438Z,57.01
2022-11-25T09:13:10.371Z,57.12
2022-11-25T09:15:38.452Z,56.71
2022-11-25T09:18:08.081Z,56.21
2022-11-25T09:20:35.928Z,56.05
2022-11-25T09:23:05.401Z,55.22
2022-11-25T09:25:33.235Z,55.20
2022-11-25T09:28:01.080Z,54.57
2022-11-25T09:30:29.236Z,54.62
2022-11-25T09:32:57.121Z,54.11
2022-11-25T09:35:25.207Z,53.74
2022-11-25T09:37:53.002Z,53.12
2022-11-25T09:40:26.129Z,53.00
2022-11-25T09:43:14.631Z,52.63
2022-11-25T09:46:05.361Z,50.67
2022-11-25T09:48:47.220Z,49.63
2022-11-25T09:51:19.968Z,49.62
2022-11-25T09:53:48.821Z,48.74
2022-11-25T09:56:31.127Z,48.16
2022-11-25T09:59:01.771Z,48.56
2022-11-25T10:01:30.410Z,47.37
2022-11-25T10:04:01.472Z,47.78
2022-11-25T10:06:31.052Z,45.79
2022-11-25T10:08:59.693Z,42.83
2022-11-25T10:11:48.356Z,41.33
2022-11-25T10:14:19.544Z,42.23
2022-11-25T10:16:51.738Z,43.39
2022-11-25T10:19:25.659Z,43.89
2022-11-25T10:21:53.580Z,44.56
2022-11-25T10:24:22.162Z,45.55
2022-11-25T10:26:54.732Z,45.90
2022-11-25T10:29:27.069Z,46.76
2022-11-25T10:32:00.311Z,47.05
2022-11-25T10:34:32.907Z,47.33
2022-11-25T10:37:00.753Z,47.57
2022-11-25T10:39:31.705Z,47.75
2022-11-25T10:42:03.668Z,47.79
2022-11-25T10:44:32.388Z,48.06
2022-11-25T10:47:13.991Z,48.35
2022-11-25T10:49:47.584Z,48.71
2022-11-25T10:52:15.572Z,49.09
2022-11-25T10:54:44.095Z,49.23
2022-11-25T10:57:19.795Z,49.36
2022-11-25T10:59:56.308Z,49.56
2022-11-25T11:02:26.188Z,49.49
2022-11-25T11:05:00.864Z,49.73
2022-11-25T11:07:29.507Z,49.39
2022-11-25T11:10:14.981Z,48.98
2022-11-25T11:12:52.833Z,48.51
2022-11-25T11:15:21.995Z,48.40
2022-11-25T11:17:49.790Z,48.13
2022-11-25T11:20:24.095Z,47.81
2022-11-25T11:22:56.568Z,48.06
2022-11-25T11:25:30.499Z,48.67
2022-11-25T11:27:59.634Z,48.30
2022-11-25T11:30:28.349Z,48.16
2022-11-25T11:32:58.458Z,47.95
2022-11-25T11:35:28.582Z,46.77
2022-11-25T11:37:58.239Z,46.30
2022-11-25T11:40:32.238Z,45.38
2022-11-25T11:43:10.228Z,44.63
2022-11-25T11:45:55.276Z,44.73
2022-11-25T11:48:28.394Z,45.37
2022-11-25T11:51:01.663Z,45.39
2022-11-25T11:53:31.673Z,45.64
2022-11-25T11:58:59.028Z,45.89
2022-11-25T12:01:35.182Z,46.03
2022-11-25T12:04:04.954Z,46.07
2022-11-25T12:06:33.082Z,45.91
2022-11-25T12:09:02.095Z,46.23
2022-11-25T12:11:31.345Z,46.38
2022-11-25T12:14:01.800Z,46.66
2022-11-25T12:16:32.701Z,46.88
2022-11-25T12:19:03.150Z,46.79
2022-11-25T12:21:42.321Z,46.83
2022-11-25T12:24:15.140Z,47.84
2022-11-25T12:26:47.771Z,48.21
2022-11-25T12:29:21.073Z,48.53
2022-11-25T12:31:51.198Z,48.86
2022-11-25T12:34:21.829Z,49.27
2022-11-25T12:36:49.595Z,49.50
2022-11-25T12:39:21.830Z,49.42
2022-11-25T12:41:51.836Z,49.36
2022-11-25T12:44:22.270Z,49.19
2022-11-25T12:46:50.634Z,49.57
2022-11-25T12:49:20.185Z,49.88
2022-11-25T12:52:03.081Z,49.56
2022-11-25T12:54:44.772Z,49.70
2022-11-25T12:57:29.199Z,50.09
2022-11-25T13:00:39.817Z,50.08
2022-11-25T13:03:15.647Z,50.05
2022-11-25T13:06:06.902Z,50.21
2022-11-25T13:08:46.586Z,49.90
2022-11-25T13:11:24.136Z,49.93
2022-11-25T13:13:55.897Z,50.28
2022-11-25T13:16:25.787Z,49.80
2022-11-25T13:18:53.795Z,50.28
2022-11-25T13:21:22.415Z,49.83
2022-11-25T13:23:52.104Z,50.23
2022-11-25T13:26:57.140Z,49.82
2022-11-25T13:30:02.010Z,49.77
2022-11-25T13:32:42.060Z,50.42
2022-11-25T13:35:37.976Z,50.03
2022-11-25T13:38:48.761Z,50.18
2022-11-25T13:41:24.588Z,50.47
2022-11-25T13:44:01.126Z,50.96
2022-11-25T13:46:31.372Z,50.64
2022-11-25T13:49:01.582Z,50.55
2022-11-25T13:51:29.204Z,51.04
2022-11-25T13:53:58.249Z,50.67
2022-11-25T13:56:28.210Z,50.90
2022-11-25T13:59:20.746Z,50.92
2022-11-25T14:01:54.741Z,50.82
2022-11-25T14:04:32.796Z,51.01
2022-11-25T14:07:07.373Z,50.53
2022-11-25T14:09:42.645Z,50.34
2022-11-25T14:12:34.667Z,50.50
2022-11-25T14:15:47.079Z,50.13
2022-11-25T14:18:44.366Z,51.03
2022-11-25T14:21:17.464Z,51.25
2022-11-25T14:23:54.201Z,51.05
2022-11-25T14:26:48.826Z,50.84
2022-11-25T14:29:18.301Z,50.93
2022-11-25T14:31:47.940Z,51.17
2022-11-25T14:34:16.902Z,51.16
2022-11-25T14:36:47.220Z,51.83
2022-11-25T14:39:17.772Z,51.63
2022-11-25T14:41:49.208Z,51.35
2022-11-25T14:44:19.151Z,51.34
2022-11-25T14:46:53.125Z,51.10
2022-11-25T14:52:11.617Z,51.43
2022-11-25T14:54:42.173Z,51.77
2022-11-25T14:57:10.251Z,51.47
2022-11-25T14:59:42.122Z,51.42
2022-11-25T15:02:28.668Z,50.90
2022-11-25T15:05:03.250Z,51.17
2022-11-25T15:07:32.920Z,51.19
2022-11-25T15:10:00.663Z,51.14
2022-11-25T15:12:29.942Z,51.65
2022-11-25T15:14:57.595Z,51.31
2022-11-25T15:17:27.640Z,51.45
2022-11-25T15:19:55.495Z,51.39
2022-11-25T15:22:24.492Z,51.20
2022-11-25T15:24:56.044Z,51.74
2022-11-25T15:27:26.082Z,51.35
2022-11-25T15:29:54.771Z,51.29
2022-11-25T15:32:25.331Z,51.32
2022-11-25T15:34:53.389Z,51.83
2022-11-25T15:37:21.068Z,52.00
2022-11-25T15:39:48.885Z,51.91
2022-11-25T15:42:20.039Z,51.57
2022-11-25T15:44:49.892Z,51.82
2022-11-25T15:47:20.501Z,51.73
2022-11-25T15:49:49.030Z,51.53
2022-11-25T15:52:17.905Z,51.54
2022-11-25T15:54:46.833Z,51.52
2022-11-25T15:57:18.603Z,52.10
2022-11-25T15:59:51.162Z,51.89
2022-11-25T16:02:38.834Z,51.77
2022-11-25T16:05:35.859Z,52.02
2022-11-25T16:08:31.371Z,51.70
2022-11-25T16:11:00.493Z,52.06
2022-11-25T16:13:34.341Z,51.85
2022-11-25T16:16:05.910Z,52.40
2022-11-25T16:18:42.339Z,52.40
2022-11-25T16:21:11.519Z,52.08
2022-11-25T16:23:41.648Z,52.09
2022-11-25T16:26:15.913Z,52.06
2022-11-25T16:28:52.070Z,52.27
2022-11-25T16:31:19.776Z,52.71
2022-11-25T16:33:47.539Z,52.28
2022-11-25T16:36:15.211Z,52.06
2022-11-25T16:38:42.948Z,52.20
2022-11-25T16:41:12.099Z,52.76
2022-11-25T16:43:40.380Z,52.49
2022-11-25T16:46:11.655Z,52.79
2022-11-25T16:48:39.372Z,52.27
2022-11-25T16:51:09.805Z,53.13
2022-11-25T16:53:37.457Z,52.77
2022-11-25T16:56:05.509Z,52.86
2022-11-25T16:58:33.095Z,52.87
2022-11-25T17:01:00.762Z,52.57
2022-11-25T17:03:29.886Z,53.15
2022-11-25T17:05:58.042Z,53.01
2022-11-25T17:08:25.768Z,52.71
2022-11-25T17:10:53.465Z,53.52
2022-11-25T17:13:23.185Z,52.96
2022-11-25T17:15:50.942Z,52.99
2022-11-25T17:18:19.317Z,53.19
2022-11-25T17:20:48.355Z,53.72
2022-11-25T17:23:16.753Z,53.49
2022-11-25T17:25:47.190Z,53.13
2022-11-25T17:28:16.103Z,53.28
2022-11-25T17:30:43.886Z,53.24
2022-11-25T17:33:14.153Z,53.91
2022-11-25T17:35:42.001Z,53.42
2022-11-25T17:38:12.951Z,54.16
2022-11-25T17:40:43.151Z,53.67
2022-11-25T17:45:46.706Z,54.29
2022-11-25T17:48:16.492Z,53.84
2022-11-25T17:50:45.361Z,54.55
2022-11-25T17:53:15.634Z,54.44
2022-11-25T17:55:43.595Z,54.44
2022-11-25T17:58:11.639Z,54.85
2022-11-25T18:00:40.613Z,54.80
2022-11-25T18:03:10.803Z,55.16
2022-11-25T18:05:38.559Z,54.98
2022-11-25T18:08:06.265Z,54.57
2022-11-25T18:10:35.301Z,55.26
2022-11-25T18:13:02.980Z,55.10
2022-11-25T18:15:32.185Z,54.92
2022-11-25T18:18:02.070Z,55.31
2022-11-25T18:20:32.267Z,55.38
2022-11-25T18:23:00.180Z,55.52
2022-11-25T18:25:29.543Z,55.69
2022-11-25T18:27:59.909Z,55.74
2022-11-25T18:30:29.341Z,55.71
2022-11-25T18:32:57.368Z,56.02
2022-11-25T18:35:27.018Z,56.02
2022-11-25T18:37:56.777Z,55.49
2022-11-25T18:40:24.996Z,56.13
2022-11-25T18:42:54.539Z,55.90
2022-11-25T18:45:24.532Z,56.46
2022-11-25T18:47:52.193Z,55.83
2022-11-25T18:50:20.864Z,56.26
2022-11-25T18:52:48.834Z,55.83
2022-11-25T18:55:17.475Z,56.10
2022-11-25T18:57:52.545Z,56.40
2022-11-25T19:00:32.357Z,56.18
2022-11-25T19:03:02.091Z,56.22
2022-11-25T19:05:31.074Z,56.45
2022-11-25T19:07:58.817Z,56.38
2022-11-25T19:10:28.360Z,56.73
2022-11-25T19:12:57.204Z,56.37
2022-11-25T19:15:24.890Z,56.37
2022-11-25T19:17:54.990Z,56.83
2022-11-25T19:20:24.963Z,56.00
2022-11-25T19:22:56.622Z,56.39
2022-11-25T19:25:27.967Z,56.22
2022-11-25T19:27:56.985Z,56.29
2022-11-25T19:30:25.562Z,56.13
2022-11-25T19:32:54.767Z,55.84
2022-11-25T19:35:27.480Z,55.74
2022-11-25T19:37:55.156Z,55.93
2022-11-25T19:40:25.034Z,55.79
2022-11-25T19:42:52.742Z,55.83
2022-11-25T19:45:21.163Z,55.67
2022-11-25T19:47:50.386Z,55.61
2022-11-25T19:50:21.332Z,56.26
2022-11-25T19:52:50.769Z,56.58
2022-11-25T19:55:19.599Z,56.23
2022-11-25T19:57:47.286Z,56.56
2022-11-25T20:00:15.919Z,56.90
2022-11-25T20:02:43.894Z,56.29
2022-11-25T20:05:12.352Z,56.96
2022-11-25T20:07:40.065Z,56.70
2022-11-25T20:10:16.755Z,56.41
2022-11-25T20:12:44.408Z,56.72
2022-11-25T20:15:12.353Z,56.67
2022-11-25T20:17:40.700Z,56.97
2022-11-25T20:20:12.068Z,57.06
2022-11-25T20:22:41.123Z,57.28
2022-11-25T20:25:12.246Z,57.16
2022-11-25T20:27:39.872Z,57.02
2022-11-25T20:30:13.876Z,57.64
2022-11-25T20:32:41.639Z,57.76
2022-11-25T20:35:10.959Z,57.83
2022-11-25T20:37:50.618Z,57.58
2022-11-25T20:40:21.313Z,57.96
2022-11-25T20:42:49.597Z,58.20
2022-11-25T20:45:17.722Z,57.69
2022-11-25T20:47:47.029Z,58.25
2022-11-25T20:50:14.932Z,58.37
2022-11-25T20:52:42.792Z,58.32
2022-11-25T20:55:19.280Z,58.70
2022-11-25T20:57:47.095Z,58.62
2022-11-25T21:00:19.306Z,58.75
2022-11-25T21:02:47.072Z,58.74
2022-11-25T21:05:15.318Z,58.60
2022-11-25T21:07:43.119Z,58.76
2022-11-25T21:10:21.201Z,58.21
2022-11-25T21:12:48.887Z,58.15
2022-11-25T21:15:17.592Z,58.61
2022-11-25T21:17:45.268Z,58.37
2022-11-25T21:20:14.763Z,58.11
2022-11-25T21:22:44.099Z,58.43
2022-11-25T21:25:13.050Z,58.58
2022-11-25T21:27:42.165Z,58.40
2022-11-25T21:30:17.804Z,58.70
2022-11-25T21:32:45.515Z,58.42
2022-11-25T21:35:13.291Z,58.35
2022-11-25T21:37:41.632Z,58.38
2022-11-25T21:40:11.913Z,58.26
2022-11-25T21:42:39.556Z,58.72
2022-11-25T21:45:11.591Z,58.37
2022-11-25T21:47:39.503Z,58.21
2022-11-25T21:50:13.339Z,58.15
2022-11-25T21:52:41.024Z,58.11
2022-11-25T21:55:10.538Z,58.50
2022-11-25T21:57:38.167Z,58.06
2022-11-25T22:00:18.423Z,58.01
2022-11-25T22:02:46.085Z,58.67
2022-11-25T22:05:14.765Z,58.34
2022-11-25T22:07:42.383Z,58.32
2022-11-25T22:10:10.492Z,58.48
2022-11-25T22:12:41.403Z,58.15
2022-11-25T22:15:14.076Z,58.08
2022-11-25T22:17:41.772Z,58.01
2022-11-25T22:20:19.462Z,58.54
2022-11-25T22:22:47.072Z,58.36
2022-11-25T22:25:14.929Z,58.38
2022-11-25T22:27:42.571Z,58.27
2022-11-25T22:30:15.038Z,58.51
2022-11-25T22:32:42.685Z,58.25
2022-11-25T22:35:16.985Z,58.51
2022-11-25T22:37:44.869Z,58.43
2022-11-25T22:40:13.386Z,58.26
2022-11-25T22:42:41.435Z,57.94
2022-11-25T22:45:18.688Z,58.62
2022-11-25T22:47:46.785Z,58.39
2022-11-25T22:50:18.983Z,58.53
2022-11-25T22:52:46.662Z,58.37
2022-11-25T22:55:17.772Z,58.39
2022-11-25T22:57:45.437Z,58.25
2022-11-25T23:00:19.340Z,58.39
2022-11-25T23:02:47.285Z,58.53
2022-11-25T23:05:16.601Z,58.47
2022-11-25T23:07:44.391Z,58.76
2022-11-25T23:10:17.127Z,58.34
2022-11-25T23:12:44.788Z,58.58
2022-11-25T23:15:15.968Z,58.76
2022-11-25T23:17:49.121Z,58.74
2022-11-25T23:20:20.689Z,58.87
2022-11-25T23:22:48.567Z,58.53
2022-11-25T23:25:17.436Z,58.73
2022-11-25T23:27:45.162Z,58.81
2022-11-25T23:30:16.484Z,59.05
2022-11-25T23:32:45.600Z,58.91
2022-11-25T23:35:17.295Z,58.78
2022-11-25T23:37:45.127Z,58.95
2022-11-25T23:40:18.994Z,58.81
2022-11-25T23:42:46.973Z,58.80
2022-11-25T23:45:16.237Z,58.75
2022-11-25T23:47:46.239Z,58.63
2022-11-25T23:50:24.888Z,58.68
2022-11-25T23:52:52.654Z,59.09
2022-11-25T23:55:22.949Z,59.16
2022-11-25T23:57:50.688Z,58.96
